Time;durP1;ratioP1;P1;durP2;ratioP2;P2;SDS_P1;SDS_P2;PMS_P1;PMS_P2;Temp;Humidity;BMP_temperature;BMP_pressure;BME280_temperature;BME280_humidity;BME280_pressure;Samples;Min_cycle;Max_cycle;Signal;HPM_P1;HPM_P2
2022/01/19 00:01:23;;;;;;;15.60;7.50;;;;;;;2.06;100.00;102528.53;5004972;28;20242;-79
2022/01/19 00:03:49;;;;;;;15.77;7.47;;;;;;;2.05;100.00;102526.75;5006398;28;20219;-79
2022/01/19 00:06:16;;;;;;;22.83;8.33;;;;;;;2.06;100.00;102529.41;5007186;28;20215;-79
2022/01/19 00:08:43;;;;;;;18.27;8.10;;;;;;;2.07;100.00;102528.56;5005849;28;20203;-80
2022/01/19 00:11:11;;;;;;;19.10;8.40;;;;;;;2.05;100.00;102521.59;5006181;28;20538;-80
2022/01/19 00:13:38;;;;;;;17.33;8.37;;;;;;;2.06;100.00;102515.66;5006743;28;20225;-79
2022/01/19 00:16:05;;;;;;;18.83;8.13;;;;;;;2.04;100.00;102512.13;5005501;28;20757;-78
2022/01/19 00:18:32;;;;;;;14.50;7.70;;;;;;;2.03;100.00;102500.09;5005114;28;20211;-78
2022/01/19 00:20:58;;;;;;;17.03;8.27;;;;;;;2.02;100.00;102493.19;5005264;28;20221;-78
2022/01/19 00:23:25;;;;;;;16.93;8.57;;;;;;;2.02;100.00;102491.50;5006688;28;20224;-77
2022/01/19 00:25:53;;;;;;;16.67;8.20;;;;;;;2.03;100.00;102490.66;5006661;28;20212;-78
2022/01/19 00:28:21;;;;;;;20.87;9.03;;;;;;;2.03;100.00;102482.94;5001809;28;20201;-77
2022/01/19 00:30:48;;;;;;;19.07;8.03;;;;;;;2.02;100.00;102470.91;4990759;28;20797;-77
2022/01/19 00:33:15;;;;;;;17.17;8.00;;;;;;;2.03;100.00;102466.63;5007302;28;20220;-77
2022/01/19 00:35:42;;;;;;;20.77;8.73;;;;;;;2.04;100.00;102465.81;4991374;28;20204;-78
2022/01/19 00:38:10;;;;;;;15.60;8.00;;;;;;;2.06;100.00;102477.06;4993814;28;20213;-78
2022/01/19 00:40:37;;;;;;;19.07;7.87;;;;;;;2.03;100.00;102470.09;4992158;28;20705;-77
2022/01/19 00:43:03;;;;;;;18.33;8.07;;;;;;;2.03;100.00;102464.06;5013223;28;20230;-77
2022/01/19 00:45:31;;;;;;;18.57;7.97;;;;;;;2.03;100.00;102449.50;5010780;28;20283;-77
2022/01/19 00:47:58;;;;;;;17.93;8.33;;;;;;;2.01;100.00;102448.56;4993842;28;20231;-77
2022/01/19 00:50:28;;;;;;;21.93;8.33;;;;;;;2.01;100.00;102447.69;4988076;28;20576;-77
2022/01/19 00:52:54;;;;;;;20.47;8.27;;;;;;;2.00;100.00;102448.50;4990016;28;20227;-77
2022/01/19 00:55:22;;;;;;;16.97;8.63;;;;;;;1.99;100.00;102455.34;5008566;28;20201;-77
2022/01/19 00:57:49;;;;;;;13.63;7.80;;;;;;;1.98;100.00;102443.28;5005161;28;20283;-78
2022/01/19 01:00:19;;;;;;;17.10;8.23;;;;;;;1.98;100.00;102442.44;4984360;28;20595;-78
2022/01/19 01:02:47;;;;;;;17.73;8.57;;;;;;;1.97;100.00;102449.28;4986823;28;20215;-78
2022/01/19 01:05:14;;;;;;;18.47;8.93;;;;;;;1.96;100.00;102450.09;5004869;28;20197;-78
2022/01/19 01:07:41;;;;;;;16.03;7.70;;;;;;;1.95;100.00;102440.59;5003844;28;20200;-78
2022/01/19 01:10:10;;;;;;;16.80;8.17;;;;;;;1.94;100.00;102441.44;5002258;28;20211;-78
2022/01/19 01:12:46;;;;;;;17.80;7.57;;;;;;;1.93;100.00;102437.09;5004258;28;20768;-78
2022/01/19 01:15:46;;;;;;;15.33;8.17;;;;;;;1.93;100.00;102433.66;4985553;28;20216;-78
2022/01/19 01:18:19;;;;;;;18.33;8.17;;;;;;;1.91;100.00;102437.88;5001713;28;20216;-78
2022/01/19 01:20:49;;;;;;;13.63;7.33;;;;;;;1.90;100.00;102437.00;4987131;28;20220;-78
2022/01/19 01:23:16;;;;;;;14.63;8.23;;;;;;;1.89;100.00;102427.50;5000290;28;20307;-78
2022/01/19 01:25:43;;;;;;;16.90;7.73;;;;;;;1.88;100.00;102413.78;4986625;28;20216;-78
2022/01/19 01:28:09;;;;;;;17.10;7.57;;;;;;;1.86;100.00;102409.38;4985439;28;20287;-78
2022/01/19 01:30:37;;;;;;;15.73;7.90;;;;;;;1.85;100.00;102411.09;4987705;28;20200;-78
2022/01/19 01:33:05;;;;;;;17.03;8.03;;;;;;;1.84;100.00;102404.19;5001727;28;20221;-78
2022/01/19 01:35:34;;;;;;;19.33;8.13;;;;;;;1.84;100.00;102395.59;4987940;28;20200;-78
2022/01/19 01:38:01;;;;;;;16.30;7.40;;;;;;;1.84;100.00;102390.44;5003878;28;20208;-78
2022/01/19 01:40:31;;;;;;;17.70;8.30;;;;;;;1.84;100.00;102400.75;5003473;28;20208;-78
2022/01/19 01:42:58;;;;;;;16.63;7.93;;;;;;;1.83;100.00;102393.81;4984714;28;20590;-78
2022/01/19 01:45:28;;;;;;;23.03;8.57;;;;;;;1.83;100.00;102365.53;4983469;28;20239;-78
2022/01/19 01:48:04;;;;;;;18.37;8.50;;;;;;;1.84;100.00;102349.28;5004490;28;20214;-78
2022/01/19 01:53:32;;;;;;;15.73;7.70;;;;;;;1.85;100.00;102335.63;4951756;28;20281;-78
2022/01/19 01:56:01;;;;;;;16.87;7.80;;;;;;;1.85;100.00;102340.78;4988097;28;20669;-78
2022/01/19 01:58:28;;;;;;;18.53;8.43;;;;;;;1.86;100.00;102338.22;4986068;28;20232;-78
2022/01/19 02:01:15;;;;;;;18.53;8.33;;;;;;;1.87;100.00;102340.00;5002352;28;20211;-78
2022/01/19 02:03:44;;;;;;;16.23;8.23;;;;;;;1.90;100.00;102336.69;4985787;28;20690;-78
2022/01/19 02:09:16;;;;;;;15.10;7.73;;;;;;;1.97;100.00;102341.22;4980840;28;20702;-78
2022/01/19 02:23:11;;;;;;;16.90;7.60;;;;;;;1.99;100.00;102316.41;4965502;28;20232;-78
2022/01/19 02:25:41;;;;;;;19.30;7.80;;;;;;;2.01;100.00;102316.47;5002690;28;20618;-78
2022/01/19 02:31:33;;;;;;;21.43;8.17;;;;;;;2.00;100.00;102296.72;4984176;28;20200;-80
2022/01/19 02:40:10;;;;;;;21.00;8.73;;;;;;;2.02;100.00;102295.97;4996964;28;20948;-78
2022/01/19 02:42:33;;;;;;;22.13;9.37;;;;;;;2.04;100.00;102278.88;4985671;28;20216;-78
2022/01/19 02:50:29;;;;;;;19.80;7.83;;;;;;;2.07;100.00;102276.38;5008735;28;20208;-78
2022/01/19 02:52:56;;;;;;;15.53;8.17;;;;;;;2.06;100.00;102271.22;4989319;28;20212;-78
2022/01/19 02:55:23;;;;;;;16.70;8.30;;;;;;;2.05;100.00;102266.88;4989993;28;20244;-80
2022/01/19 02:57:50;;;;;;;18.10;9.07;;;;;;;2.04;100.00;102262.53;4990275;28;20683;-80
2022/01/19 03:08:46;;;;;;;21.20;8.60;;;;;;;2.04;100.00;102249.66;4988831;28;20303;-80
2022/01/19 03:11:17;;;;;;;20.80;7.57;;;;;;;2.04;100.00;102248.00;4987095;28;20196;-80
2022/01/19 03:13:43;;;;;;;20.57;8.83;;;;;;;2.04;100.00;102255.72;4993054;28;20217;-78
2022/01/19 03:16:10;;;;;;;18.83;8.80;;;;;;;2.06;100.00;102248.06;5005933;28;20286;-78
2022/01/19 03:18:36;;;;;;;15.73;8.20;;;;;;;2.06;100.00;102237.75;5006651;28;20259;-78
2022/01/19 03:21:04;;;;;;;22.37;8.80;;;;;;;2.05;100.00;102228.28;4989314;28;20235;-78
2022/01/19 03:23:33;;;;;;;17.87;8.47;;;;;;;2.04;100.00;102224.84;4988821;28;20228;-78
2022/01/19 03:26:04;;;;;;;18.60;7.73;;;;;;;2.04;100.00;102213.66;5002350;28;20204;-78
2022/01/19 03:28:30;;;;;;;17.27;7.57;;;;;;;2.04;100.00;102205.94;4990347;28;20255;-78
2022/01/19 03:30:57;;;;;;;17.83;8.40;;;;;;;2.03;100.00;102194.78;5002093;28;20236;-78
2022/01/19 03:33:23;;;;;;;17.30;7.73;;;;;;;2.03;100.00;102193.91;4990370;28;20776;-78
2022/01/19 03:35:51;;;;;;;20.87;9.13;;;;;;;2.03;100.00;102188.75;4986929;28;20201;-78
2022/01/19 03:38:18;;;;;;;14.83;7.67;;;;;;;2.01;100.00;102186.13;4998379;28;20247;-78
2022/01/19 03:40:46;;;;;;;18.73;7.97;;;;;;;2.01;100.00;102185.25;4988352;28;20224;-80
2022/01/19 03:43:16;;;;;;;18.47;8.30;;;;;;;1.98;100.00;102186.03;5008446;28;20216;-80
2022/01/19 03:45:59;;;;;;;19.03;7.50;;;;;;;1.95;100.00;102179.91;4989283;28;20652;-78
2022/01/19 03:48:36;;;;;;;20.87;8.07;;;;;;;1.91;100.00;102190.91;4986346;28;20573;-78
2022/01/19 03:51:04;;;;;;;14.17;7.17;;;;;;;1.86;100.00;102183.03;4989212;28;20239;-78
2022/01/19 03:53:32;;;;;;;16.60;7.37;;;;;;;1.83;100.00;102180.34;4988519;28;20217;-78
2022/01/19 03:56:00;;;;;;;17.07;6.87;;;;;;;1.80;100.00;102175.13;4990145;28;20212;-80
2022/01/19 03:58:26;;;;;;;15.50;7.80;;;;;;;1.75;100.00;102177.50;5005152;28;20205;-78
2022/01/19 04:00:56;;;;;;;12.97;7.00;;;;;;;1.70;100.00;102177.34;5005721;28;20217;-79
2022/01/19 04:03:30;;;;;;;14.33;7.27;;;;;;;1.65;100.00;102171.19;4988794;28;20225;-79
2022/01/19 04:06:01;;;;;;;14.60;7.70;;;;;;;1.60;100.00;102172.72;5005651;28;20246;-79
2022/01/19 04:08:28;;;;;;;18.53;7.30;;;;;;;1.55;100.00;102161.41;4988065;28;20302;-80
2022/01/19 04:10:54;;;;;;;22.27;8.10;;;;;;;1.51;100.00;102159.50;5005445;28;20201;-79
2022/01/19 04:13:32;;;;;;;15.07;7.03;;;;;;;1.45;100.00;102159.31;4988178;28;20668;-78
2022/01/19 04:15:59;;;;;;;18.23;7.40;;;;;;;1.37;100.00;102159.00;4986103;28;20215;-78
2022/01/19 04:18:26;;;;;;;16.07;7.47;;;;;;;1.29;100.00;102150.19;5002023;28;20205;-79
2022/01/19 04:20:53;;;;;;;14.57;7.07;;;;;;;1.19;100.00;102141.25;5004469;28;20205;-79
2022/01/19 04:23:24;;;;;;;17.40;7.60;;;;;;;1.10;100.00;102131.50;4994600;28;20250;-78
2022/01/19 04:25:50;;;;;;;14.33;7.10;;;;;;;1.03;100.00;102139.81;5002817;28;20200;-78
2022/01/19 04:28:17;;;;;;;14.67;6.87;;;;;;;0.93;100.00;102138.59;5004851;28;20197;-78
2022/01/19 04:30:49;;;;;;;11.67;6.53;;;;;;;0.85;100.00;102128.84;4988956;28;20288;-78
2022/01/19 04:33:18;;;;;;;14.77;7.30;;;;;;;0.79;100.00;102124.34;4986792;28;20593;-78
2022/01/19 04:35:49;;;;;;;16.43;6.70;;;;;;;0.69;100.00;102118.00;5001318;28;20901;-78
2022/01/19 04:44:33;;;;;;;17.73;7.10;;;;;;;0.41;100.00;102105.78;4934449;28;20251;-78
2022/01/19 04:47:40;;;;;;;15.10;7.73;;;;;;;0.35;100.00;102100.41;4987221;28;20206;-78
2022/01/19 05:04:25;;;;;;;13.63;7.33;;;;;;;-0.06;100.00;102085.09;5006050;28;20216;-80
2022/01/19 05:07:12;;;;;;;17.23;8.17;;;;;;;-0.18;100.00;102076.91;5004114;28;20206;-80
2022/01/19 05:15:18;;;;;;;16.43;8.00;;;;;;;-0.39;100.00;102079.47;4988532;28;20721;-80
2022/01/19 05:17:46;;;;;;;15.23;7.90;;;;;;;-0.46;100.00;102072.31;4988114;28;20205;-79
2022/01/19 05:20:15;;;;;;;17.83;8.53;;;;;;;-0.54;100.00;102066.88;4991303;28;20303;-80
2022/01/19 05:22:42;;;;;;;16.00;7.10;;;;;;;-0.59;100.00;102064.13;4989619;28;20311;-80
2022/01/19 05:25:14;;;;;;;15.87;7.87;;;;;;;-0.60;100.00;102056.38;4983718;28;20221;-79
2022/01/19 05:27:50;;;;;;;21.20;8.77;;;;;;;-0.64;100.00;102055.34;4970419;28;20232;-80
2022/01/19 05:30:18;;;;;;;15.83;8.20;;;;;;;-0.64;100.00;102050.25;4969192;28;20209;-79
2022/01/19 05:32:44;;;;;;;17.07;8.37;;;;;;;-0.66;100.00;102045.88;4969039;28;20747;-80
2022/01/19 05:35:11;;;;;;;22.77;8.50;;;;;;;-0.70;100.00;102046.53;4969981;28;20232;-79
2022/01/19 05:37:58;;;;;;;18.40;7.90;;;;;;;-0.77;100.00;102037.75;4986453;28;20337;-79
2022/01/19 05:40:36;;;;;;;20.23;8.90;;;;;;;-0.80;100.00;102028.22;4969872;28;20216;-80
2022/01/19 05:43:03;;;;;;;18.63;8.13;;;;;;;-0.82;100.00;102029.84;4988475;28;20267;-79
2022/01/19 05:45:31;;;;;;;17.63;8.73;;;;;;;-0.87;100.00;102027.91;4965258;28;20291;-80
2022/01/19 05:48:07;;;;;;;15.23;7.53;;;;;;;-0.89;100.00;102030.41;4970918;28;20217;-80
2022/01/19 05:50:34;;;;;;;18.50;9.17;;;;;;;-0.88;100.00;102032.16;4968828;28;20324;-80
2022/01/19 05:53:07;;;;;;;26.43;8.70;;;;;;;-0.84;100.00;102036.59;4991052;28;20264;-80
2022/01/19 05:55:34;;;;;;;18.83;8.83;;;;;;;-0.80;100.00;102024.78;4969204;28;20208;-80
2022/01/19 05:58:00;;;;;;;18.90;9.50;;;;;;;-0.79;100.00;102029.13;4967977;28;20328;-79
2022/01/19 06:00:26;;;;;;;19.57;9.73;;;;;;;-0.72;100.00;102018.31;4982900;28;20203;-80
2022/01/19 06:02:53;;;;;;;23.30;10.27;;;;;;;-0.72;100.00;102008.06;4984631;28;20275;-80
2022/01/19 06:05:27;;;;;;;21.40;9.00;;;;;;;-0.69;100.00;102009.88;4963952;28;20213;-80
2022/01/19 06:08:40;;;;;;;32.23;10.67;;;;;;;-0.64;100.00;102004.13;4969235;28;20202;-80
2022/01/19 06:11:06;;;;;;;23.90;10.93;;;;;;;-0.60;100.00;102000.91;4981643;28;20699;-79
2022/01/19 06:13:34;;;;;;;27.23;13.57;;;;;;;-0.57;100.00;101992.44;4971041;28;20213;-80
2022/01/19 06:16:01;;;;;;;32.50;15.13;;;;;;;-0.59;100.00;101992.38;4969870;28;20292;-79
2022/01/19 06:18:28;;;;;;;43.83;17.00;;;;;;;-0.57;100.00;101989.88;4970619;28;20682;-80
2022/01/19 06:20:55;;;;;;;38.07;16.40;;;;;;;-0.52;100.00;101984.97;4970419;28;20229;-79
2022/01/19 06:23:28;;;;;;;36.47;16.17;;;;;;;-0.53;100.00;101978.94;4973249;28;20233;-80
2022/01/19 06:26:03;;;;;;;33.50;15.00;;;;;;;-0.50;100.00;101973.94;4993940;28;20223;-80
2022/01/19 06:28:29;;;;;;;37.63;16.10;;;;;;;-0.47;100.00;101962.97;4972425;28;20851;-80
2022/01/19 06:30:57;;;;;;;34.93;14.90;;;;;;;-0.48;100.00;101968.91;4991570;28;20582;-79
2022/01/19 06:33:23;;;;;;;34.30;15.27;;;;;;;-0.51;100.00;101966.19;4988862;28;20568;-80
2022/01/19 06:35:50;;;;;;;28.87;14.40;;;;;;;-0.57;100.00;101961.72;4992684;28;20194;-79
2022/01/19 06:38:25;;;;;;;30.90;13.23;;;;;;;-0.64;100.00;101959.72;4985984;28;20815;-80
2022/01/19 06:41:10;;;;;;;28.03;12.90;;;;;;;-0.71;100.00;101962.84;4970801;28;20297;-80
2022/01/19 06:43:39;;;;;;;29.90;13.27;;;;;;;-0.81;100.00;101959.91;4973953;28;20276;-79
2022/01/19 06:46:06;;;;;;;30.63;12.93;;;;;;;-0.86;100.00;101956.25;4974318;28;20209;-80
2022/01/19 06:48:33;;;;;;;31.23;13.73;;;;;;;-0.96;100.00;101954.13;4973226;28;20201;-79
2022/01/19 06:51:05;;;;;;;30.77;13.63;;;;;;;-0.97;100.00;101950.69;4972823;28;20197;-79
2022/01/19 06:53:54;;;;;;;32.03;13.23;;;;;;;-1.02;100.00;101936.81;4990483;28;20602;-79
2022/01/19 06:56:28;;;;;;;24.70;11.53;;;;;;;-1.04;100.00;101927.31;4971013;28;20228;-79
2022/01/19 06:59:15;;;;;;;27.77;12.30;;;;;;;-1.00;100.00;101919.84;4979850;28;20302;-79
2022/01/19 07:02:00;;;;;;;31.07;12.60;;;;;;;-1.06;100.00;101919.56;4989523;28;20817;-79
2022/01/19 07:04:47;;;;;;;35.00;15.13;;;;;;;-1.09;100.00;101918.56;4973860;28;20221;-80
2022/01/19 07:07:14;;;;;;;37.40;14.60;;;;;;;-1.11;100.00;101921.06;4989292;28;20273;-80
2022/01/19 07:09:56;;;;;;;32.20;14.93;;;;;;;-1.15;100.00;101911.50;4972799;28;20209;-78
2022/01/19 07:12:26;;;;;;;37.60;16.17;;;;;;;-1.21;100.00;101906.16;4987548;28;20194;-78
2022/01/19 07:14:53;;;;;;;34.67;15.33;;;;;;;-1.26;100.00;101897.38;4971466;28;20218;-78
2022/01/19 07:17:20;;;;;;;39.10;15.13;;;;;;;-1.29;100.00;101898.13;4972660;28;20229;-77
2022/01/19 07:19:47;;;;;;;39.60;17.67;;;;;;;-1.34;100.00;101894.47;4972413;28;21033;-78
2022/01/19 07:22:15;;;;;;;42.27;15.60;;;;;;;-1.36;100.00;101888.44;4975775;28;20245;-78
2022/01/19 07:24:42;;;;;;;37.20;16.13;;;;;;;-1.39;100.00;101884.06;4974700;28;20217;-78
2022/01/19 07:27:09;;;;;;;39.37;14.70;;;;;;;-1.40;100.00;101877.19;4969961;28;20241;-78
2022/01/19 07:29:37;;;;;;;34.10;13.97;;;;;;;-1.41;100.00;101877.13;4991069;28;20610;-78
2022/01/19 07:32:05;;;;;;;35.87;13.53;;;;;;;-1.38;100.00;101874.72;4970622;28;20680;-78
2022/01/19 07:34:32;;;;;;;31.17;12.80;;;;;;;-1.37;100.00;101869.66;4991322;28;20232;-78
2022/01/19 07:37:04;;;;;;;32.63;13.83;;;;;;;-1.31;100.00;101863.91;4986318;28;20214;-77
2022/01/19 07:39:31;;;;;;;33.63;12.87;;;;;;;-1.30;100.00;101859.66;4974085;28;20918;-78
2022/01/19 07:41:57;;;;;;;32.33;13.37;;;;;;;-1.30;100.00;101852.88;4973101;28;20218;-78
2022/01/19 07:44:44;;;;;;;36.87;13.80;;;;;;;-1.28;100.00;101835.03;4988453;28;20724;-78
2022/01/19 07:47:23;;;;;;;34.23;13.80;;;;;;;-1.23;100.00;101820.72;4987426;28;20573;-78
2022/01/19 07:50:22;;;;;;;35.73;14.50;;;;;;;-1.21;100.00;101814.00;4972769;28;20201;-78
2022/01/19 07:53:13;;;;;;;37.37;15.10;;;;;;;-1.21;100.00;101811.44;4984122;28;20677;-78
2022/01/19 07:55:53;;;;;;;36.17;13.57;;;;;;;-1.19;100.00;101812.38;4972870;28;20595;-78
2022/01/19 07:58:29;;;;;;;32.40;14.53;;;;;;;-1.13;100.00;101815.16;4969843;28;20213;-78
2022/01/19 08:01:11;;;;;;;31.67;13.67;;;;;;;-1.12;100.00;101819.50;4968294;28;20291;-78
2022/01/19 08:03:47;;;;;;;42.07;17.10;;;;;;;-1.05;100.00;101818.94;4969955;28;20228;-78
2022/01/19 08:06:20;;;;;;;45.10;18.13;;;;;;;-1.03;100.00;101814.72;4971244;28;20207;-78
2022/01/19 08:08:49;;;;;;;58.37;22.37;;;;;;;-1.01;100.00;101807.13;4970869;28;20205;-78
2022/01/19 08:11:16;;;;;;;46.00;17.67;;;;;;;-0.99;100.00;101805.50;4971771;28;20204;-78
2022/01/19 08:13:46;;;;;;;34.67;15.03;;;;;;;-1.01;100.00;101802.88;4972785;28;20619;-78
2022/01/19 08:16:14;;;;;;;45.37;16.37;;;;;;;-0.98;100.00;101797.00;4969816;28;20208;-78
2022/01/19 08:18:40;;;;;;;37.07;14.63;;;;;;;-0.94;100.00;101796.31;4987349;28;20216;-78
2022/01/19 08:21:06;;;;;;;37.53;13.67;;;;;;;-0.89;100.00;101806.75;4985850;28;20205;-78
2022/01/19 08:23:44;;;;;;;36.70;13.30;;;;;;;-0.85;100.00;101804.34;4970071;28;20590;-78
2022/01/19 08:26:36;;;;;;;35.03;13.07;;;;;;;-0.80;100.00;101797.72;4968578;28;20224;-78
2022/01/19 08:29:09;;;;;;;35.80;13.00;;;;;;;-0.72;100.00;101792.91;4980669;28;20235;-78
2022/01/19 08:31:37;;;;;;;36.07;13.80;;;;;;;-0.66;100.00;101794.84;4968038;28;20212;-78
2022/01/19 08:34:10;;;;;;;33.87;12.10;;;;;;;-0.65;100.00;101779.53;4987573;28;20225;-78
2022/01/19 08:36:55;;;;;;;37.57;13.13;;;;;;;-0.55;100.00;101785.00;4984335;28;20212;-78
2022/01/19 08:39:26;;;;;;;38.53;13.27;;;;;;;-0.51;100.00;101776.59;4971170;28;20197;-78
2022/01/19 08:41:55;;;;;;;33.67;13.07;;;;;;;-0.44;100.00;101771.78;4968436;28;20287;-78
2022/01/19 08:44:22;;;;;;;37.60;14.13;;;;;;;-0.38;100.00;101764.28;4971068;28;20221;-78
2022/01/19 08:46:57;;;;;;;37.77;14.43;;;;;;;-0.34;100.00;101762.72;4968930;28;20236;-78
2022/01/19 08:49:29;;;;;;;37.00;13.07;;;;;;;-0.28;100.00;101752.69;4984321;28;20211;-79
2022/01/19 08:52:16;;;;;;;51.40;17.47;;;;;;;-0.23;100.00;101758.88;4982434;28;20292;-78
2022/01/19 08:54:49;;;;;;;44.07;15.03;;;;;;;-0.12;100.00;101755.78;4970441;28;20229;-78
2022/01/19 08:57:17;;;;;;;48.93;16.70;;;;;;;-0.07;100.00;101751.72;4970513;28;20197;-78
2022/01/19 08:59:43;;;;;;;46.17;16.53;;;;;;;-0.04;100.00;101750.13;4986640;28;20205;-78
2022/01/19 09:02:11;;;;;;;44.70;15.87;;;;;;;0.04;100.00;101735.03;4983171;28;20588;-78
2022/01/19 09:04:38;;;;;;;50.60;16.20;;;;;;;0.09;100.00;101732.59;4986933;28;20225;-78
2022/01/19 09:07:04;;;;;;;46.63;16.77;;;;;;;0.14;100.00;101726.84;4984939;28;20212;-78
2022/01/19 09:09:31;;;;;;;56.77;16.90;;;;;;;0.25;100.00;101718.63;4984577;28;20201;-78
2022/01/19 09:11:57;;;;;;;50.60;16.83;;;;;;;0.31;100.00;101719.69;4988210;28;20204;-78
2022/01/19 09:14:23;;;;;;;52.40;17.47;;;;;;;0.42;100.00;101717.47;4984541;28;20221;-78
2022/01/19 09:16:50;;;;;;;47.27;16.27;;;;;;;0.50;100.00;101705.78;4987570;28;20209;-79
2022/01/19 09:19:18;;;;;;;50.27;16.67;;;;;;;0.66;100.00;101703.69;4984791;28;20205;-78
2022/01/19 09:21:45;;;;;;;50.50;16.97;;;;;;;0.70;100.00;101702.97;4987217;28;20858;-79
2022/01/19 09:24:11;;;;;;;48.33;16.77;;;;;;;0.76;100.00;101703.19;4987214;28;20221;-78
2022/01/19 09:26:38;;;;;;;44.63;17.00;;;;;;;0.80;100.00;101705.00;4986004;28;20198;-79
2022/01/19 09:29:05;;;;;;;54.83;17.70;;;;;;;0.91;100.00;101708.75;4986698;28;20769;-78
2022/01/19 09:31:33;;;;;;;52.93;17.37;;;;;;;0.97;100.00;101696.94;4985069;28;20855;-79
2022/01/19 09:34:08;;;;;;;48.03;18.27;;;;;;;1.06;100.00;101686.97;4988206;28;20694;-78
2022/01/19 09:36:44;;;;;;;58.10;18.57;;;;;;;1.11;100.00;101683.69;4982876;28;20287;-79
2022/01/19 09:39:11;;;;;;;57.13;17.70;;;;;;;1.21;100.00;101669.41;4985982;28;20206;-79
2022/01/19 09:41:38;;;;;;;53.57;18.17;;;;;;;1.24;100.00;101679.78;4986373;28;20317;-78
2022/01/19 09:44:06;;;;;;;59.07;19.00;;;;;;;1.39;100.00;101686.19;4986466;28;20244;-78
2022/01/19 09:46:33;;;;;;;63.07;17.97;;;;;;;1.39;100.00;101679.38;4982417;28;20229;-79
2022/01/19 09:48:59;;;;;;;64.40;19.97;;;;;;;1.45;100.00;101686.38;4983239;28;20837;-79
2022/01/19 09:51:26;;;;;;;61.23;19.50;;;;;;;1.52;100.00;101683.13;4981528;28;20208;-79
2022/01/19 10:23:33;;;;;;;90.20;27.33;;;;;;;2.01;100.00;101617.56;5003014;28;20220;-78
2022/01/19 10:38:17;;;;;;;97.23;30.33;;;;;;;2.26;100.00;101600.16;5033146;28;20231;-78
2022/01/19 10:47:40;;;;;;;98.03;28.67;;;;;;;2.31;100.00;101579.69;4932475;28;20670;-77
2022/01/19 10:50:35;;;;;;;88.80;28.07;;;;;;;2.28;100.00;101571.03;4964539;28;20213;-78
2022/01/19 10:53:24;;;;;;;83.33;28.53;;;;;;;2.33;100.00;101578.88;4990907;28;20562;-78
2022/01/19 10:59:06;;;;;;;69.93;24.77;;;;;;;2.42;100.00;101567.91;5021195;28;20217;-77
2022/01/19 11:02:02;;;;;;;68.40;23.60;;;;;;;2.43;100.00;101573.09;5037553;28;20204;-78
2022/01/19 11:04:54;;;;;;;61.07;24.30;;;;;;;2.48;100.00;101575.78;5039865;28;20289;-77
2022/01/19 11:07:44;;;;;;;57.80;24.53;;;;;;;2.51;100.00;101562.97;5039267;28;20274;-78
2022/01/19 11:13:28;;;;;;;40.67;19.93;;;;;;;2.50;100.00;101544.91;5039968;28;20246;-78
2022/01/19 11:16:11;;;;;;;34.33;18.23;;;;;;;2.51;100.00;101541.50;5044706;28;20199;-78
2022/01/19 11:18:42;;;;;;;31.67;17.67;;;;;;;2.53;100.00;101529.53;5041468;28;20226;-78
2022/01/19 11:21:21;;;;;;;32.67;16.23;;;;;;;2.56;100.00;101522.72;5036210;28;20210;-78
2022/01/19 11:24:15;;;;;;;28.53;16.03;;;;;;;2.59;100.00;101515.09;5040775;28;20223;-78
2022/01/19 11:26:55;;;;;;;24.57;14.63;;;;;;;2.63;100.00;101516.00;5029221;28;20214;-81
2022/01/19 11:29:28;;;;;;;23.73;15.13;;;;;;;2.67;100.00;101519.53;5045728;28;20203;-80
2022/01/19 11:32:14;;;;;;;22.90;14.00;;;;;;;2.69;100.00;101502.38;5043018;28;20204;-80
2022/01/19 11:34:49;;;;;;;22.97;13.60;;;;;;;2.72;100.00;101503.31;5040505;28;20219;-80
2022/01/19 11:37:31;;;;;;;22.87;13.00;;;;;;;2.81;100.00;101510.38;5043461;28;20591;-81
2022/01/19 11:40:05;;;;;;;19.43;11.80;;;;;;;2.79;100.00;101509.47;5041932;28;20274;-80
2022/01/19 11:42:39;;;;;;;19.73;11.43;;;;;;;2.76;100.00;101512.88;5046195;28;20200;-80
2022/01/19 11:45:10;;;;;;;19.67;12.17;;;;;;;2.83;100.00;101506.09;5044599;28;20219;-81
2022/01/19 11:47:42;;;;;;;20.20;11.93;;;;;;;2.96;100.00;101512.38;5037938;28;20207;-80
2022/01/19 11:50:15;;;;;;;20.37;12.20;;;;;;;3.01;100.00;101508.19;5027788;28;20210;-80
2022/01/19 11:53:07;;;;;;;20.47;13.00;;;;;;;3.20;100.00;101493.91;5041917;28;20196;-80
2022/01/19 11:55:36;;;;;;;20.17;11.97;;;;;;;3.25;100.00;101489.72;5044786;28;20748;-80
2022/01/19 11:58:16;;;;;;;18.17;10.77;;;;;;;3.30;100.00;101476.91;5043495;28;20199;-80
2022/01/19 12:00:44;;;;;;;21.00;12.07;;;;;;;3.40;100.00;101474.53;5039687;28;20610;-80
2022/01/19 12:03:23;;;;;;;18.40;11.20;;;;;;;3.45;100.00;101464.28;5040964;28;20286;-80
2022/01/19 12:05:51;;;;;;;15.67;10.73;;;;;;;3.29;100.00;101460.59;5039709;28;20197;-80
2022/01/19 12:08:24;;;;;;;18.37;11.27;;;;;;;3.06;100.00;101449.88;5047037;28;20290;-81
2022/01/19 12:10:56;;;;;;;17.53;10.93;;;;;;;2.90;100.00;101450.44;5040099;28;20207;-80
2022/01/19 12:13:33;;;;;;;16.10;10.77;;;;;;;2.74;100.00;101444.97;5046420;28;20319;-81
2022/01/19 12:16:05;;;;;;;16.53;11.20;;;;;;;2.61;100.00;101425.00;5022317;28;20215;-81
2022/01/19 12:18:39;;;;;;;15.57;9.90;;;;;;;2.61;100.00;101414.69;5038715;28;20281;-80
2022/01/19 12:21:06;;;;;;;13.67;9.17;;;;;;;2.51;100.00;101411.06;5037080;28;20238;-81
2022/01/19 12:23:36;;;;;;;14.80;10.23;;;;;;;2.44;100.00;101402.34;5039652;28;20219;-80
2022/01/19 12:26:06;;;;;;;14.07;9.97;;;;;;;2.45;100.00;101393.81;5044136;28;20212;-81
2022/01/19 12:28:45;;;;;;;14.47;9.33;;;;;;;2.54;100.00;101382.81;5043686;28;20211;-80
2022/01/19 12:31:33;;;;;;;15.37;10.33;;;;;;;2.48;100.00;101377.56;5046679;28;20258;-80
2022/01/19 12:34:21;;;;;;;15.67;10.13;;;;;;;2.48;100.00;101364.69;5041240;28;20239;-80
2022/01/19 12:36:52;;;;;;;14.27;9.33;;;;;;;2.50;100.00;101346.69;5040100;28;20207;-78
2022/01/19 12:39:36;;;;;;;13.90;9.87;;;;;;;2.60;100.00;101346.00;5037775;28;20252;-78
2022/01/19 12:42:06;;;;;;;15.23;9.50;;;;;;;2.52;100.00;101351.03;5025095;28;20545;-78
2022/01/19 12:44:41;;;;;;;13.23;9.20;;;;;;;2.54;100.00;101345.91;5036595;28;20223;-78
2022/01/19 12:47:41;;;;;;;12.50;8.80;;;;;;;2.51;100.00;101344.13;5042426;28;20191;-77
2022/01/19 12:50:43;;;;;;;13.63;9.13;;;;;;;2.32;100.00;101331.75;5017259;28;20291;-77
2022/01/19 12:53:17;;;;;;;12.53;8.80;;;;;;;2.23;100.00;101319.59;5037383;28;20231;-78
2022/01/19 12:55:46;;;;;;;14.37;8.83;;;;;;;2.23;100.00;101301.56;5039487;28;20195;-78
2022/01/19 12:58:19;;;;;;;12.37;8.70;;;;;;;2.23;100.00;101299.88;5042505;28;20191;-78
2022/01/19 13:00:49;;;;;;;12.77;8.63;;;;;;;2.20;100.00;101289.53;5040425;28;20568;-77
2022/01/19 13:03:20;;;;;;;14.73;9.37;;;;;;;2.26;100.00;101286.19;5041472;28;20907;-78
2022/01/19 13:05:49;;;;;;;11.90;8.63;;;;;;;2.25;100.00;101280.19;5041367;28;20554;-77
2022/01/19 13:08:27;;;;;;;12.27;8.53;;;;;;;2.22;100.00;101282.69;5047149;28;20215;-77
2022/01/19 13:11:02;;;;;;;13.70;8.70;;;;;;;2.24;100.00;101277.59;5038625;28;20533;-78
2022/01/19 13:13:30;;;;;;;14.40;8.80;;;;;;;2.19;100.00;101279.22;5034976;28;20314;-78
2022/01/19 13:15:59;;;;;;;16.13;10.73;;;;;;;2.19;100.00;101268.91;5037753;28;20285;-78
2022/01/19 13:18:34;;;;;;;16.73;10.07;;;;;;;2.16;100.00;101258.56;5038559;28;20242;-78
2022/01/19 13:21:03;;;;;;;18.13;10.43;;;;;;;2.21;100.00;101250.06;5034309;28;20207;-78
2022/01/19 13:23:31;;;;;;;12.07;8.73;;;;;;;2.28;100.00;101245.91;5041711;28;20219;-78
2022/01/19 13:26:00;;;;;;;13.30;9.40;;;;;;;2.28;100.00;101238.19;5040982;28;20278;-78
2022/01/19 13:28:30;;;;;;;13.07;9.27;;;;;;;2.32;100.00;101232.25;5038423;28;20203;-78
2022/01/19 13:31:10;;;;;;;12.13;8.70;;;;;;;2.31;100.00;101227.97;5038913;28;20206;-80
2022/01/19 13:33:37;;;;;;;12.30;8.23;;;;;;;2.29;100.00;101232.22;5043890;28;20219;-80
2022/01/19 13:36:04;;;;;;;11.57;8.00;;;;;;;2.31;100.00;101220.25;5028220;28;20262;-80